Time;durP1;ratioP1;P1;durP2;ratioP2;P2;SDS_P1;SDS_P2;PMS_P1;PMS_P2;Temp;Humidity;BMP_temperature;BMP_pressure;BME280_temperature;BME280_humidity;BME280_pressure;Samples;Min_cycle;Max_cycle;Signal;HPM_P1;HPM_P2
2022/02/19 00:02:04;;;;;;;5.85;1.25;;;;;;;8.99;47.99;96587.78;4965991;28;20271;-89
2022/02/19 00:04:30;;;;;;;7.10;1.52;;;;;;;8.83;48.72;96573.91;4935355;28;20194;-86
2022/02/19 00:06:55;;;;;;;11.75;2.55;;;;;;;8.59;50.35;96568.25;4986788;28;20350;-88
2022/02/19 00:09:20;;;;;;;7.32;1.67;;;;;;;8.59;50.32;96589.00;4955271;28;20289;-89
2022/02/19 00:11:46;;;;;;;7.05;1.20;;;;;;;8.45;51.05;96604.19;4946056;28;20082;-86
2022/02/19 00:14:11;;;;;;;6.60;1.67;;;;;;;8.62;50.39;96589.28;4985900;28;20206;-84
2022/02/19 00:16:37;;;;;;;6.65;1.17;;;;;;;8.60;51.19;96595.75;4941894;28;20194;-87
2022/02/19 00:19:04;;;;;;;10.30;2.17;;;;;;;8.76;50.77;96597.47;4963394;28;20636;-87
2022/02/19 00:21:30;;;;;;;9.68;1.80;;;;;;;8.75;50.43;96597.69;4972230;28;20199;-87
2022/02/19 00:23:55;;;;;;;5.05;1.45;;;;;;;8.74;50.60;96601.31;4960581;28;20366;-85
2022/02/19 00:26:20;;;;;;;8.68;1.38;;;;;;;8.89;50.13;96582.50;4954606;28;20179;-86
2022/02/19 00:28:46;;;;;;;7.25;1.48;;;;;;;8.59;51.00;96605.34;4971946;28;20279;-86
2022/02/19 00:31:11;;;;;;;6.30;1.73;;;;;;;8.66;50.82;96615.53;4949748;28;20727;-88
2022/02/19 00:33:37;;;;;;;5.22;1.00;;;;;;;8.50;51.40;96611.22;4955371;28;20183;-88
2022/02/19 00:36:02;;;;;;;7.68;2.22;;;;;;;8.51;50.03;96616.16;4971333;28;20647;-89
2022/02/19 00:38:28;;;;;;;7.25;1.80;;;;;;;8.39;50.38;96605.88;4988059;28;20209;-87
2022/02/19 00:40:54;;;;;;;6.10;1.58;;;;;;;8.90;49.43;96623.78;4956299;28;20189;-88
2022/02/19 00:43:19;;;;;;;8.88;1.65;;;;;;;8.62;49.65;96636.00;4972087;28;20198;-88
2022/02/19 00:45:45;;;;;;;10.77;2.05;;;;;;;8.34;50.42;96633.59;4960606;28;20262;-87
2022/02/19 00:48:10;;;;;;;7.05;1.52;;;;;;;8.45;49.69;96648.28;4948030;28;20103;-88
2022/02/19 00:50:35;;;;;;;6.65;1.65;;;;;;;8.44;49.32;96655.25;4952399;28;20372;-88
2022/02/19 00:53:01;;;;;;;6.18;1.27;;;;;;;8.67;48.92;96663.81;4935374;28;20291;-87
2022/02/19 00:55:27;;;;;;;9.18;1.30;;;;;;;8.72;48.21;96676.06;4967690;28;20473;-88
2022/02/19 00:57:53;;;;;;;11.02;2.25;;;;;;;8.39;48.61;96659.59;4942163;28;20201;-86
2022/02/19 01:00:18;;;;;;;5.97;1.63;;;;;;;8.75;47.84;96676.34;4946952;28;20214;-83
2022/02/19 01:02:44;;;;;;;6.40;1.20;;;;;;;8.23;47.99;96679.38;4945560;28;20226;-91
2022/02/19 01:05:09;;;;;;;8.02;1.10;;;;;;;8.78;47.83;96670.66;4987070;28;20286;-86
2022/02/19 01:07:35;;;;;;;5.57;0.98;;;;;;;8.65;48.10;96668.44;4964414;28;20205;-89
2022/02/19 01:10:01;;;;;;;10.80;1.63;;;;;;;8.63;47.18;96667.91;4947510;28;20258;-87
2022/02/19 01:12:26;;;;;;;6.95;1.20;;;;;;;8.68;47.63;96678.34;4945009;28;20272;-86
2022/02/19 01:14:51;;;;;;;4.75;1.25;;;;;;;8.75;47.15;96676.34;4964206;28;20199;-89
2022/02/19 01:17:17;;;;;;;5.05;1.13;;;;;;;8.62;46.94;96695.69;4944736;28;20283;-85
2022/02/19 01:19:42;;;;;;;6.78;1.00;;;;;;;8.31;47.37;96676.38;4960179;28;20178;-89
2022/02/19 01:22:08;;;;;;;8.05;1.50;;;;;;;8.05;47.28;96683.84;4970869;28;20200;-84
2022/02/19 01:24:34;;;;;;;6.70;1.33;;;;;;;8.38;47.54;96702.91;4961893;28;20178;-87
2022/02/19 01:26:59;;;;;;;9.40;1.13;;;;;;;8.36;47.59;96699.78;4978853;28;20217;-86
2022/02/19 01:29:26;;;;;;;5.90;1.13;;;;;;;8.33;47.34;96689.88;4969237;28;20205;-88
2022/02/19 01:31:51;;;;;;;7.85;1.58;;;;;;;8.37;47.33;96693.56;4971146;28;20307;-85
2022/02/19 01:34:16;;;;;;;5.03;1.17;;;;;;;8.42;47.47;96704.03;4951116;28;20195;-88
2022/02/19 01:36:42;;;;;;;11.02;2.90;;;;;;;8.52;47.35;96715.56;4958315;28;20275;-88
2022/02/19 01:39:08;;;;;;;6.63;2.00;;;;;;;8.23;48.09;96710.50;4964284;28;20276;-87
2022/02/19 01:41:33;;;;;;;5.95;1.25;;;;;;;8.76;47.77;96721.28;4970422;28;20170;-87
2022/02/19 01:44:10;;;;;;;8.27;1.55;;;;;;;8.02;48.74;96715.44;4962855;28;20207;-85
2022/02/19 01:46:36;;;;;;;5.22;1.60;;;;;;;8.64;47.69;96729.19;4941179;28;20287;-89
2022/02/19 01:49:03;;;;;;;4.45;0.77;;;;;;;8.30;47.93;96718.91;4955577;28;20281;-88
2022/02/19 01:51:32;;;;;;;10.93;2.33;;;;;;;8.35;47.65;96734.53;4962943;28;20240;-88
2022/02/19 01:54:09;;;;;;;7.38;1.02;;;;;;;7.97;47.59;96725.72;4965299;28;20579;-86
2022/02/19 01:56:36;;;;;;;7.78;1.02;;;;;;;7.94;48.46;96718.41;4967542;28;20211;-89
2022/02/19 01:59:05;;;;;;;4.05;1.00;;;;;;;8.11;47.16;96738.38;4949289;28;20766;-84
2022/02/19 02:01:30;;;;;;;6.85;1.80;;;;;;;8.32;47.52;96729.81;4962063;28;20078;-85
2022/02/19 02:03:55;;;;;;;7.63;1.13;;;;;;;7.94;47.35;96725.41;4964752;28;20271;-88
2022/02/19 02:06:24;;;;;;;6.72;1.60;;;;;;;7.95;48.00;96740.75;4970342;28;20197;-90
2022/02/19 02:08:49;;;;;;;3.20;0.90;;;;;;;7.83;47.35;96733.06;4948394;28;20213;-88
2022/02/19 02:11:16;;;;;;;6.43;1.13;;;;;;;8.13;47.01;96762.25;4970768;28;20264;-88
2022/02/19 02:13:42;;;;;;;6.22;1.00;;;;;;;8.27;46.54;96771.25;4960505;28;20187;-87
2022/02/19 02:16:07;;;;;;;9.13;2.60;;;;;;;7.86;47.54;96753.31;4951003;28;20212;-86
2022/02/19 02:18:33;;;;;;;8.77;1.55;;;;;;;7.95;47.09;96760.66;4954237;28;20186;-87
2022/02/19 02:20:58;;;;;;;7.05;1.20;;;;;;;7.87;47.70;96759.28;4970888;28;20113;-88
2022/02/19 02:23:24;;;;;;;5.18;1.33;;;;;;;8.09;46.91;96768.91;4962913;28;20275;-86
2022/02/19 02:25:52;;;;;;;10.48;1.70;;;;;;;7.58;47.85;96749.00;4984336;28;20279;-85
2022/02/19 02:28:19;;;;;;;9.15;1.30;;;;;;;7.64;47.57;96775.75;4964585;28;20216;-89
2022/02/19 02:30:45;;;;;;;6.05;1.00;;;;;;;7.87;47.93;96775.59;4945720;28;20308;-87
2022/02/19 02:33:13;;;;;;;5.15;1.05;;;;;;;7.27;48.43;96766.63;4962545;28;20201;-87
2022/02/19 02:35:39;;;;;;;4.90;0.80;;;;;;;7.85;48.21;96782.06;4934955;28;20597;-92
2022/02/19 02:38:04;;;;;;;7.00;1.52;;;;;;;7.66;48.24;96758.97;4969076;28;20189;-87
2022/02/19 02:40:33;;;;;;;6.95;1.35;;;;;;;7.54;48.36;96785.97;4954263;28;20348;-87
2022/02/19 02:42:59;;;;;;;10.10;1.08;;;;;;;7.68;48.67;96766.50;4963787;28;20382;-89
2022/02/19 02:45:25;;;;;;;7.97;1.25;;;;;;;7.48;48.72;96792.88;4947691;28;20708;-87
2022/02/19 02:47:50;;;;;;;8.73;1.40;;;;;;;7.45;49.09;96785.56;4991809;28;20210;-89
2022/02/19 02:50:16;;;;;;;7.43;1.50;;;;;;;7.34;50.08;96791.59;4963782;28;20279;-88
2022/02/19 02:52:41;;;;;;;10.65;1.40;;;;;;;7.45;49.76;96782.97;4953818;28;20210;-86
2022/02/19 02:55:08;;;;;;;5.45;1.00;;;;;;;7.11;50.56;96788.06;4950332;28;20293;-88
2022/02/19 02:57:34;;;;;;;5.80;1.20;;;;;;;7.20;51.70;96776.34;4961090;28;20276;-89
2022/02/19 03:00:00;;;;;;;5.38;0.95;;;;;;;7.08;51.19;96798.91;4966729;28;20285;-87
2022/02/19 03:02:29;;;;;;;12.10;1.52;;;;;;;7.24;50.87;96798.16;4939424;28;20350;-87
2022/02/19 03:04:55;;;;;;;8.68;2.03;;;;;;;7.18;51.59;96793.91;4947855;28;20211;-88
2022/02/19 03:07:21;;;;;;;5.38;0.98;;;;;;;7.46;50.61;96807.84;4969998;28;20077;-85
2022/02/19 03:09:46;;;;;;;6.28;1.30;;;;;;;7.23;51.58;96796.59;4955162;28;20192;-84
2022/02/19 03:12:12;;;;;;;17.52;2.38;;;;;;;6.91;51.74;96804.78;4952795;28;20293;-88
2022/02/19 03:14:37;;;;;;;6.95;1.13;;;;;;;7.20;51.18;96827.34;4989891;28;20213;-84
2022/02/19 03:17:03;;;;;;;7.13;1.05;;;;;;;7.16;51.16;96837.34;4968543;28;20175;-87
2022/02/19 03:19:29;;;;;;;4.90;0.95;;;;;;;7.35;50.85;96837.19;4957114;28;20605;-89
2022/02/19 03:21:55;;;;;;;7.30;1.35;;;;;;;7.09;51.79;96842.69;4984358;28;20706;-86
2022/02/19 03:24:20;;;;;;;6.63;1.50;;;;;;;7.15;51.19;96856.50;4956680;28;20352;-86
2022/02/19 03:26:45;;;;;;;7.28;1.17;;;;;;;7.52;50.85;96863.91;4973388;28;20127;-88
2022/02/19 03:29:11;;;;;;;9.77;1.30;;;;;;;7.55;50.79;96866.03;4950037;28;20381;-88
2022/02/19 03:31:36;;;;;;;4.03;1.10;;;;;;;7.03;51.65;96853.16;4967204;28;20655;-88
2022/02/19 03:34:01;;;;;;;7.07;1.50;;;;;;;6.93;52.23;96883.00;4967070;28;20247;-84
2022/02/19 03:36:27;;;;;;;6.05;0.93;;;;;;;7.03;51.20;96886.81;4950295;28;20246;-87
2022/02/19 03:38:52;;;;;;;7.68;0.95;;;;;;;7.32;51.21;96893.59;4964830;28;20265;-87
2022/02/19 03:41:18;;;;;;;6.38;1.00;;;;;;;7.39;50.34;96892.69;4987742;28;20754;-86
2022/02/19 03:43:43;;;;;;;7.82;1.30;;;;;;;7.38;50.51;96884.13;4956744;28;20255;-88
2022/02/19 03:46:08;;;;;;;8.13;1.17;;;;;;;7.30;50.32;96894.88;4966159;28;20205;-89
2022/02/19 03:48:34;;;;;;;3.92;1.08;;;;;;;7.56;49.72;96903.88;4956652;28;20155;-88
2022/02/19 03:50:59;;;;;;;5.38;0.88;;;;;;;7.52;50.05;96909.75;4962395;28;20295;-86
2022/02/19 03:53:25;;;;;;;8.30;1.30;;;;;;;7.15;50.14;96918.66;4972898;28;20618;-85
2022/02/19 03:55:50;;;;;;;2.78;0.43;;;;;;;7.18;50.64;96915.59;4949708;28;20195;-86
2022/02/19 03:58:15;;;;;;;4.82;0.80;;;;;;;6.85;51.40;96929.91;4969088;28;20197;-86
2022/02/19 04:00:41;;;;;;;5.00;1.40;;;;;;;7.18;50.62;96912.22;4968728;28;20196;-87
2022/02/19 04:03:09;;;;;;;7.10;1.30;;;;;;;7.23;50.40;96936.41;4940131;28;20252;-85
2022/02/19 04:05:34;;;;;;;4.72;0.63;;;;;;;7.34;50.88;96955.53;4988637;28;20350;-89
2022/02/19 04:08:00;;;;;;;7.28;1.52;;;;;;;7.32;50.60;96957.56;4961313;28;20337;-86
2022/02/19 04:10:26;;;;;;;5.28;1.00;;;;;;;7.49;50.93;96963.59;4945505;28;20183;-87
2022/02/19 04:12:51;;;;;;;7.45;1.27;;;;;;;7.15;50.62;96946.34;4972285;28;20182;-86
2022/02/19 04:15:17;;;;;;;6.20;1.02;;;;;;;7.37;50.94;96977.59;4982310;28;20202;-88
2022/02/19 04:17:42;;;;;;;6.40;0.75;;;;;;;7.53;50.11;96987.25;4972337;28;20327;-86
2022/02/19 04:20:08;;;;;;;3.22;1.17;;;;;;;7.35;50.81;96966.66;4954705;28;20171;-89
2022/02/19 04:22:35;;;;;;;5.05;1.30;;;;;;;7.10;51.00;96968.50;4971560;28;20239;-83
2022/02/19 04:25:01;;;;;;;6.47;1.05;;;;;;;7.20;50.72;96985.28;4972540;28;20210;-88
2022/02/19 04:27:26;;;;;;;5.60;1.02;;;;;;;7.40;50.58;96988.31;4956462;28;20179;-86
2022/02/19 04:29:51;;;;;;;4.10;1.33;;;;;;;7.34;51.00;96993.59;4968805;28;20156;-87
2022/02/19 04:32:17;;;;;;;6.40;1.77;;;;;;;7.27;50.96;96998.91;4990398;28;20655;-85
2022/02/19 04:34:42;;;;;;;6.57;1.63;;;;;;;7.28;51.03;97001.25;4937278;28;20376;-87
2022/02/19 04:37:07;;;;;;;8.57;0.82;;;;;;;7.40;50.68;97001.25;4971789;28;20163;-88
2022/02/19 04:39:33;;;;;;;7.07;1.08;;;;;;;7.28;51.25;96996.09;4955146;28;20333;-86
2022/02/19 04:41:58;;;;;;;5.63;1.15;;;;;;;7.45;51.05;97008.31;4985496;28;20207;-88
2022/02/19 04:44:23;;;;;;;6.03;1.20;;;;;;;7.47;50.84;97012.28;4978588;28;20155;-90
2022/02/19 04:46:49;;;;;;;5.28;0.63;;;;;;;6.81;51.99;96984.97;4971780;28;20643;-87
2022/02/19 04:49:14;;;;;;;2.97;1.55;;;;;;;7.36;51.05;97028.59;4955191;28;20283;-88
2022/02/19 04:51:40;;;;;;;5.35;0.65;;;;;;;7.41;50.78;97028.72;4971871;28;20346;-88
2022/02/19 04:54:05;;;;;;;3.75;0.90;;;;;;;7.17;51.02;97025.34;4967209;28;20277;-86
2022/02/19 04:56:32;;;;;;;7.50;0.82;;;;;;;7.16;51.29;97033.34;4962760;28;20203;-86
2022/02/19 04:58:58;;;;;;;6.22;1.17;;;;;;;7.31;51.15;97041.44;4950270;28;20167;-86
2022/02/19 05:01:23;;;;;;;9.73;1.17;;;;;;;7.10;51.42;97041.00;4974590;28;20211;-85
2022/02/19 05:03:49;;;;;;;4.68;0.75;;;;;;;7.21;51.44;97039.41;4961233;28;20639;-87
2022/02/19 05:06:14;;;;;;;7.32;1.05;;;;;;;7.26;51.55;97046.53;4943801;28;20733;-86
2022/02/19 05:08:41;;;;;;;4.82;0.82;;;;;;;7.27;50.72;97051.47;4947050;28;20694;-88
2022/02/19 05:11:07;;;;;;;6.30;0.95;;;;;;;7.52;50.69;97060.78;4963897;28;20656;-87
2022/02/19 05:13:32;;;;;;;6.82;1.55;;;;;;;7.23;50.93;97059.91;4948521;28;20210;-87
2022/02/19 05:15:58;;;;;;;4.97;1.25;;;;;;;7.47;50.58;97055.50;4964149;28;20171;-86
2022/02/19 05:18:23;;;;;;;4.53;1.65;;;;;;;7.40;50.79;97062.63;4968480;28;20281;-87
2022/02/19 05:20:48;;;;;;;7.25;0.93;;;;;;;7.44;50.67;97072.31;4961547;28;20695;-87
2022/02/19 05:23:14;;;;;;;5.30;0.80;;;;;;;7.16;51.80;97087.72;4979759;28;20454;-88
2022/02/19 05:25:40;;;;;;;6.13;1.52;;;;;;;7.01;51.74;97078.59;4962535;28;20277;-88
2022/02/19 05:28:09;;;;;;;5.28;0.65;;;;;;;6.92;51.25;97080.72;4936281;28;20591;-87
2022/02/19 05:30:35;;;;;;;8.90;0.90;;;;;;;7.31;51.37;97094.03;4945115;28;20168;-87
2022/02/19 05:33:01;;;;;;;5.45;1.25;;;;;;;7.08;51.41;97086.25;4961592;28;20231;-88
2022/02/19 05:35:26;;;;;;;4.78;1.10;;;;;;;7.28;50.92;97101.47;4953801;28;20691;-90
2022/02/19 05:37:52;;;;;;;4.00;0.45;;;;;;;7.18;51.70;97102.03;4953986;28;20203;-85
2022/02/19 05:40:17;;;;;;;6.13;0.68;;;;;;;7.15;51.66;97106.88;4977967;28;20206;-86
2022/02/19 05:42:43;;;;;;;7.95;1.80;;;;;;;7.23;51.97;97091.78;4967736;28;20170;-87
2022/02/19 05:45:08;;;;;;;3.72;1.02;;;;;;;7.21;52.02;97111.13;4951025;28;20316;-85
2022/02/19 05:47:34;;;;;;;11.15;1.75;;;;;;;6.81;52.57;97115.13;4970840;28;20328;-86
2022/02/19 05:49:59;;;;;;;5.28;0.98;;;;;;;7.09;52.23;97114.53;4963884;28;20171;-87
2022/02/19 05:52:25;;;;;;;6.13;0.88;;;;;;;7.15;52.11;97120.59;4942888;28;20183;-87
2022/02/19 05:54:54;;;;;;;7.38;1.40;;;;;;;7.26;52.02;97121.63;4956888;28;20212;-88
2022/02/19 05:57:20;;;;;;;6.07;0.80;;;;;;;7.32;51.36;97126.69;4949344;28;20296;-86
2022/02/19 05:59:46;;;;;;;6.15;0.70;;;;;;;7.46;51.15;97135.03;4941426;28;20211;-87
2022/02/19 06:02:11;;;;;;;5.80;0.80;;;;;;;7.36;52.37;97139.19;4934634;28;20177;-86
2022/02/19 06:04:37;;;;;;;3.72;0.80;;;;;;;7.14;53.02;97134.53;4965709;28;20688;-84
2022/02/19 06:07:03;;;;;;;3.92;0.80;;;;;;;7.34;52.09;97138.63;4956823;28;20194;-88
2022/02/19 06:09:28;;;;;;;9.00;1.73;;;;;;;7.51;51.42;97152.50;4953070;28;20263;-86
2022/02/19 06:11:53;;;;;;;5.45;1.20;;;;;;;7.46;51.61;97157.56;4963104;28;20193;-86
2022/02/19 06:14:22;;;;;;;4.38;0.95;;;;;;;7.30;51.88;97149.44;4950091;28;20181;-87
2022/02/19 06:16:47;;;;;;;6.07;1.73;;;;;;;7.17;52.32;97162.59;4960058;28;20238;-88
2022/02/19 06:19:13;;;;;;;4.53;0.55;;;;;;;7.24;52.39;97165.84;4959851;28;20116;-85
2022/02/19 06:21:38;;;;;;;7.03;1.40;;;;;;;7.07;51.69;97172.69;4985622;28;20338;-87
2022/02/19 06:24:04;;;;;;;10.52;1.35;;;;;;;7.02;51.88;97169.97;4977448;28;20215;-88
2022/02/19 06:26:29;;;;;;;4.75;1.10;;;;;;;7.21;52.08;97187.00;4948953;28;20168;-86
2022/02/19 06:28:55;;;;;;;3.40;1.58;;;;;;;7.48;51.29;97184.81;4945013;28;20175;-87
2022/02/19 06:31:21;;;;;;;5.13;0.60;;;;;;;7.20;51.43;97184.69;4969150;28;20644;-86
2022/02/19 06:33:46;;;;;;;6.45;1.33;;;;;;;7.28;51.52;97198.09;4969551;28;20159;-87
2022/02/19 06:36:12;;;;;;;5.63;0.60;;;;;;;7.41;51.43;97202.25;4969721;28;20283;-86
2022/02/19 06:38:39;;;;;;;6.05;2.30;;;;;;;7.55;51.30;97212.44;4954449;28;20203;-84
2022/02/19 06:41:09;;;;;;;5.55;1.35;;;;;;;6.94;52.23;97197.75;4953822;28;20284;-87
2022/02/19 06:43:34;;;;;;;5.22;1.38;;;;;;;7.13;51.28;97190.72;4967672;28;20183;-87
2022/02/19 06:46:00;;;;;;;3.53;0.73;;;;;;;7.49;51.45;97222.66;4976413;28;20155;-86
2022/02/19 06:48:25;;;;;;;6.32;0.98;;;;;;;6.92;52.36;97217.09;4946468;28;20639;-88
2022/02/19 06:50:51;;;;;;;5.28;1.13;;;;;;;7.24;51.98;97219.47;4956558;28;20201;-87
2022/02/19 06:53:16;;;;;;;4.43;0.82;;;;;;;7.40;51.79;97241.34;4937407;28;20172;-88
2022/02/19 06:55:42;;;;;;;5.88;0.98;;;;;;;7.36;52.58;97235.81;4936541;28;20339;-87
2022/02/19 06:58:07;;;;;;;4.25;1.23;;;;;;;7.11;53.61;97238.53;4965792;28;20687;-87
2022/02/19 07:00:32;;;;;;;5.28;0.80;;;;;;;7.58;52.07;97253.44;4980036;28;20180;-86
2022/02/19 07:02:58;;;;;;;6.13;0.98;;;;;;;7.52;51.62;97242.16;4948608;28;20256;-87
2022/02/19 07:05:23;;;;;;;7.60;1.10;;;;;;;7.34;52.24;97253.38;4942001;28;20195;-87
2022/02/19 07:07:48;;;;;;;7.50;1.73;;;;;;;7.53;52.52;97261.09;4970129;28;20236;-87
2022/02/19 07:10:14;;;;;;;5.15;1.08;;;;;;;7.24;52.88;97264.25;4943735;28;20652;-87
2022/02/19 07:12:39;;;;;;;6.22;0.70;;;;;;;7.27;52.60;97273.41;4947575;28;20209;-87
2022/02/19 07:15:09;;;;;;;6.78;1.05;;;;;;;7.42;52.61;97272.97;4962366;28;20273;-86
2022/02/19 07:17:47;;;;;;;4.85;0.80;;;;;;;7.43;52.50;97277.16;4951833;28;20202;-88
2022/02/19 07:20:13;;;;;;;4.43;0.77;;;;;;;7.63;52.45;97282.84;4959376;28;20327;-87
2022/02/19 07:22:39;;;;;;;7.47;1.00;;;;;;;7.66;51.29;97289.41;4934981;28;20647;-87
2022/02/19 07:25:05;;;;;;;7.53;1.45;;;;;;;7.73;52.40;97291.88;4943146;28;20179;-87
2022/02/19 07:27:41;;;;;;;6.03;0.77;;;;;;;7.33;52.24;97295.81;4960668;28;20597;-88
2022/02/19 07:30:08;;;;;;;3.10;0.50;;;;;;;7.23;52.02;97298.97;4952308;28;20192;-86
2022/02/19 07:32:35;;;;;;;6.85;0.80;;;;;;;7.53;51.59;97300.75;4975869;28;20185;-87
2022/02/19 07:35:00;;;;;;;8.55;0.90;;;;;;;7.61;52.34;97299.66;4969632;28;20273;-86
2022/02/19 07:37:26;;;;;;;5.38;1.00;;;;;;;7.65;52.23;97301.56;4970325;28;20299;-85
2022/02/19 07:39:51;;;;;;;7.15;0.75;;;;;;;7.69;51.75;97299.31;4969761;28;20373;-86
2022/02/19 07:42:17;;;;;;;5.82;0.88;;;;;;;7.43;52.35;97300.47;4986875;28;20311;-87
2022/02/19 07:44:42;;;;;;;4.90;1.08;;;;;;;7.67;52.04;97312.47;4953387;28;20258;-89
2022/02/19 07:47:07;;;;;;;7.13;1.80;;;;;;;7.54;52.03;97293.75;4946707;28;20282;-88
2022/02/19 08:00:29;;;;;;;6.82;0.90;;;;;;;7.66;52.42;97305.72;4990604;28;20236;-86
2022/02/19 08:02:55;;;;;;;4.75;0.80;;;;;;;7.03;53.45;97312.16;4969765;28;20205;-88
2022/02/19 08:05:20;;;;;;;6.10;0.82;;;;;;;7.37;52.83;97322.88;4973391;28;20182;-86
2022/02/19 08:07:46;;;;;;;8.73;2.25;;;;;;;7.75;52.36;97328.75;4964163;28;20067;-85
2022/02/19 08:10:13;;;;;;;4.97;0.60;;;;;;;7.63;52.16;97321.72;4970774;28;20176;-88
2022/02/19 08:12:38;;;;;;;3.30;0.68;;;;;;;7.65;51.25;97322.28;4960680;28;20252;-85
2022/02/19 08:15:04;;;;;;;6.85;1.65;;;;;;;7.85;51.42;97321.22;4957731;28;20367;-85
2022/02/19 08:17:30;;;;;;;7.88;1.27;;;;;;;7.76;51.79;97325.13;4964555;28;20207;-87
2022/02/19 08:19:56;;;;;;;6.80;0.85;;;;;;;7.75;51.76;97323.56;4937384;28;20670;-87
2022/02/19 08:22:21;;;;;;;7.57;1.30;;;;;;;7.88;51.83;97310.38;4965113;28;20563;-85
2022/02/19 08:24:47;;;;;;;7.03;1.42;;;;;;;7.99;51.14;97322.59;4981820;28;20178;-88
2022/02/19 08:27:12;;;;;;;3.92;0.90;;;;;;;7.92;51.93;97321.09;4964330;28;20660;-90
2022/02/19 08:29:37;;;;;;;8.25;2.08;;;;;;;7.53;51.78;97334.41;4971419;28;20694;-88
2022/02/19 08:32:03;;;;;;;9.40;1.40;;;;;;;7.84;51.33;97323.00;4957151;28;20195;-87
2022/02/19 08:34:29;;;;;;;7.53;1.10;;;;;;;7.82;51.51;97334.63;4973590;28;20279;-86
2022/02/19 08:36:56;;;;;;;5.28;1.20;;;;;;;7.77;51.50;97335.28;4960036;28;20231;-86
2022/02/19 08:39:25;;;;;;;9.82;2.03;;;;;;;7.75;52.52;97352.84;4969655;28;20194;-88
2022/02/19 08:41:51;;;;;;;5.72;0.90;;;;;;;8.00;50.84;97365.66;4970303;28;20604;-85
2022/02/19 08:44:17;;;;;;;6.18;1.15;;;;;;;7.87;51.68;97371.81;4940552;28;20179;-86
2022/02/19 08:46:42;;;;;;;6.20;1.17;;;;;;;7.71;51.82;97362.09;4974742;28;20632;-87
2022/02/19 08:49:07;;;;;;;11.30;1.30;;;;;;;7.65;51.35;97373.34;4966882;28;20246;-87
2022/02/19 08:51:33;;;;;;;7.43;1.83;;;;;;;7.72;51.82;97381.03;4962411;28;20194;-88
2022/02/19 08:53:58;;;;;;;7.82;1.88;;;;;;;7.71;51.68;97374.25;4959276;28;20684;-86
2022/02/19 08:56:24;;;;;;;6.05;1.27;;;;;;;7.71;51.46;97385.41;4939520;28;20276;-84
2022/02/19 08:58:49;;;;;;;4.97;1.15;;;;;;;7.73;51.66;97388.56;4970183;28;20210;-87
2022/02/19 09:01:15;;;;;;;4.10;0.73;;;;;;;7.90;51.28;97390.53;4958765;28;20235;-88
2022/02/19 09:03:40;;;;;;;6.30;0.90;;;;;;;8.03;51.49;97398.13;4953911;28;20247;-86
2022/02/19 09:06:06;;;;;;;8.02;1.38;;;;;;;7.77;51.37;97399.28;4954381;28;20688;-86
2022/02/19 09:08:31;;;;;;;3.45;0.80;;;;;;;8.01;52.49;97395.75;4955113;28;20623;-85
2022/02/19 09:10:56;;;;;;;7.07;1.63;;;;;;;8.26;50.68;97399.97;4965404;28;20199;-85
2022/02/19 09:13:22;;;;;;;6.68;1.48;;;;;;;8.22;50.93;97396.25;4970706;28;20264;-85
2022/02/19 09:15:49;;;;;;;4.20;0.90;;;;;;;8.34;50.91;97404.81;4948284;28;20251;-85
2022/02/19 09:18:15;;;;;;;5.03;1.08;;;;;;;8.40;50.25;97403.16;4948560;28;20426;-85
2022/02/19 09:20:42;;;;;;;7.25;1.23;;;;;;;8.38;51.27;97408.56;4980632;28;20139;-86
2022/02/19 09:23:08;;;;;;;3.40;0.75;;;;;;;8.51;50.00;97412.78;4958336;28;20300;-85
2022/02/19 09:25:34;;;;;;;7.25;1.20;;;;;;;8.61;49.49;97414.81;4954827;28;20263;-86
2022/02/19 09:27:59;;;;;;;6.50;2.05;;;;;;;8.52;49.49;97411.75;4946728;28;20290;-88
2022/02/19 09:30:25;;;;;;;9.35;1.15;;;;;;;7.98;50.34;97401.38;4979416;28;20201;-87
2022/02/19 09:32:50;;;;;;;7.72;1.60;;;;;;;8.41;49.76;97410.72;4947960;28;20239;-91
2022/02/19 09:35:16;;;;;;;4.30;1.38;;;;;;;8.42;50.00;97420.09;4951901;28;20185;-85
2022/02/19 09:37:42;;;;;;;6.10;1.50;;;;;;;8.48;50.01;97420.22;4975952;28;20084;-86
2022/02/19 09:40:09;;;;;;;8.23;1.23;;;;;;;8.30;50.32;97400.31;4955560;28;20186;-86
2022/02/19 09:42:38;;;;;;;4.50;0.60;;;;;;;8.31;49.63;97418.25;4955710;28;20648;-87
2022/02/19 09:45:06;;;;;;;6.20;1.30;;;;;;;8.21;50.23;97403.25;4954143;28;20269;-86
2022/02/19 09:47:32;;;;;;;5.45;0.98;;;;;;;8.53;49.95;97415.16;4952006;28;20203;-83
2022/02/19 09:49:58;;;;;;;4.30;1.05;;;;;;;8.62;49.80;97424.19;4984666;28;20156;-84
2022/02/19 09:52:24;;;;;;;6.40;1.08;;;;;;;8.47;48.91;97410.88;4970769;28;20166;-84
2022/02/19 09:54:50;;;;;;;5.13;0.95;;;;;;;8.55;50.02;97426.09;4953736;28;20429;-87
2022/02/19 09:57:16;;;;;;;5.35;1.30;;;;;;;8.62;49.69;97419.00;4946737;28;20190;-87
2022/02/19 09:59:41;;;;;;;7.75;1.35;;;;;;;8.54;49.40;97425.31;4970623;28;20589;-88
2022/02/19 10:02:07;;;;;;;7.47;1.58;;;;;;;8.72;50.08;97426.22;4955031;28;20272;-84
2022/02/19 10:04:33;;;;;;;5.40;1.23;;;;;;;8.64;50.65;97429.94;4985661;28;20105;-86
2022/02/19 10:07:10;;;;;;;6.65;1.42;;;;;;;8.87;49.11;97425.75;4940921;28;20165;-84
2022/02/19 10:09:39;;;;;;;7.38;1.52;;;;;;;8.92;49.60;97412.88;4970096;28;20093;-88
2022/02/19 10:12:13;;;;;;;5.03;0.80;;;;;;;8.87;50.26;97428.34;4971126;28;20470;-90
2022/02/19 10:14:39;;;;;;;6.35;1.95;;;;;;;8.97;49.03;97421.56;4951676;28;20257;-84
2022/02/19 10:17:11;;;;;;;10.27;2.08;;;;;;;8.78;49.26;97428.69;4950136;28;20292;-86
2022/02/19 10:19:55;;;;;;;5.80;1.20;;;;;;;8.86;49.91;97437.97;4961869;28;20280;-87
2022/02/19 10:22:31;;;;;;;4.55;2.33;;;;;;;8.90;50.75;97426.09;4986058;28;20225;-87
2022/02/19 10:25:00;;;;;;;5.90;0.82;;;;;;;8.92;50.63;97425.88;4954614;28;20395;-87
2022/02/19 10:27:44;;;;;;;3.97;1.45;;;;;;;9.18;49.53;97434.97;4957849;28;20295;-86
2022/02/19 10:30:12;;;;;;;4.07;0.90;;;;;;;9.25;49.17;97442.66;4970479;28;20085;-87
2022/02/19 10:33:03;;;;;;;8.52;1.33;;;;;;;9.14;49.76;97442.44;4937834;28;20200;-86
2022/02/19 10:35:30;;;;;;;8.98;1.75;;;;;;;9.27;49.64;97451.00;4952111;28;20242;-85
2022/02/19 10:37:55;;;;;;;7.25;1.10;;;;;;;9.05;49.78;97440.41;4970957;28;20226;-87
2022/02/19 10:40:28;;;;;;;5.10;1.15;;;;;;;8.81;49.39;97443.03;4986745;28;20633;-86
2022/02/19 10:42:55;;;;;;;6.88;1.00;;;;;;;9.18;48.62;97442.78;4986822;28;20271;-88
2022/02/19 10:45:20;;;;;;;5.07;0.70;;;;;;;9.27;47.93;97441.41;4970550;28;20275;-84
2022/02/19 10:47:46;;;;;;;6.13;1.40;;;;;;;9.22;48.44;97450.91;4960823;28;20331;-84
2022/02/19 10:50:13;;;;;;;5.95;1.42;;;;;;;9.24;48.45;97446.28;4968527;28;20190;-88
2022/02/19 10:52:44;;;;;;;4.28;1.17;;;;;;;9.29;49.15;97454.97;4970312;28;20288;-84
2022/02/19 10:55:11;;;;;;;5.40;1.00;;;;;;;9.33;49.72;97450.09;4970542;28;20293;-85
2022/02/19 10:57:42;;;;;;;4.88;0.73;;;;;;;9.44;49.48;97441.50;4949813;28;20697;-84
2022/02/19 11:00:16;;;;;;;2.97;0.80;;;;;;;9.61;48.39;97445.97;4969573;28;20614;-84
2022/02/19 11:02:42;;;;;;;4.55;1.38;;;;;;;9.43;48.86;97452.13;4947378;28;20747;-83
2022/02/19 11:05:10;;;;;;;7.15;0.88;;;;;;;9.35;50.64;97438.44;4970238;28;20183;-83
2022/02/19 11:07:37;;;;;;;5.38;1.40;;;;;;;9.38;47.76;97447.59;4973963;28;20272;-83
2022/02/19 11:10:04;;;;;;;5.25;1.80;;;;;;;9.41;48.44;97441.97;4947346;28;20595;-85
2022/02/19 11:12:30;;;;;;;5.28;1.13;;;;;;;9.36;47.54;97444.44;4970147;28;20285;-84
2022/02/19 11:14:56;;;;;;;6.38;1.25;;;;;;;9.51;48.78;97442.16;4971117;28;20277;-84
2022/02/19 11:17:22;;;;;;;4.55;0.85;;;;;;;9.66;47.30;97446.06;4960301;28;20181;-83
2022/02/19 11:19:47;;;;;;;3.72;1.05;;;;;;;9.84;48.21;97430.28;4953276;28;20281;-82
2022/02/19 11:22:13;;;;;;;3.67;0.80;;;;;;;9.82;46.73;97434.13;4967627;28;20293;-83
2022/02/19 11:24:40;;;;;;;4.18;0.90;;;;;;;9.33;47.06;97437.09;4968784;28;20820;-85
2022/02/19 11:27:06;;;;;;;6.10;1.27;;;;;;;8.95;48.68;97415.81;4966725;28;20241;-86
2022/02/19 11:29:31;;;;;;;8.88;1.30;;;;;;;9.17;47.57;97421.22;4938639;28;20270;-84
2022/02/19 11:31:58;;;;;;;4.65;1.02;;;;;;;9.34;47.49;97420.50;4961105;28;20797;-85
2022/02/19 11:34:23;;;;;;;4.45;1.15;;;;;;;9.52;46.89;97412.53;4964670;28;20685;-84
2022/02/19 11:36:52;;;;;;;3.00;0.70;;;;;;;9.21;45.91;97399.97;4945798;28;20289;-88
2022/02/19 11:39:17;;;;;;;6.00;1.17;;;;;;;9.73;45.29;97403.31;4939218;28;20078;-86
2022/02/19 11:41:45;;;;;;;9.32;1.35;;;;;;;9.79;45.48;97401.59;4965442;28;20205;-82
2022/02/19 11:44:20;;;;;;;5.63;1.05;;;;;;;9.90;46.45;97405.94;4956477;28;20271;-83
2022/02/19 11:46:49;;;;;;;6.10;0.80;;;;;;;9.96;45.26;97400.84;4965770;28;20205;-82
2022/02/19 11:49:27;;;;;;;6.05;1.48;;;;;;;10.46;43.70;97392.28;4960289;28;20752;-81